Preview of NWS' New Version of Forecast
This preview is not operational and should not be used for support decisions.

Terminal Aerodrome Forecast (TAF)

Issued by National Weather Service (NWS)

                            
000
FTUS46 KMTR 191725
TAFSTS
TAF
KSTS 191725Z 1918/2018 VRB03KT P6SM OVC006
     FM191900 16005KT P6SM SCT012
     FM192100 19010KT P6SM SKC
     FM200400 14005KT P6SM SCT010
     FM200500 VRB03KT P6SM OVC007
     FM201000 VRB03KT 5SM BR OVC005=